sensor_id;sensor_type;location;lat;lon;timestamp;temperature;humidity
46926;DHT22;32667;48.248;-1.700;2023-05-14T00:01:12;12.90;72.50
46926;DHT22;32667;48.248;-1.700;2023-05-14T00:03:38;12.90;72.60
46926;DHT22;32667;48.248;-1.700;2023-05-14T00:06:07;12.90;72.60
46926;DHT22;32667;48.248;-1.700;2023-05-14T00:08:38;12.90;72.60
46926;DHT22;32667;48.248;-1.700;2023-05-14T00:11:06;12.90;72.60
46926;DHT22;32667;48.248;-1.700;2023-05-14T00:13:34;12.90;72.50
46926;DHT22;32667;48.248;-1.700;2023-05-14T00:16:02;12.90;72.40
46926;DHT22;32667;48.248;-1.700;2023-05-14T00:18:33;12.90;72.40
46926;DHT22;32667;48.248;-1.700;2023-05-14T00:20:58;12.90;72.40
46926;DHT22;32667;48.248;-1.700;2023-05-14T00:23:24;12.90;72.30
46926;DHT22;32667;48.248;-1.700;2023-05-14T00:25:52;13.00;72.40
46926;DHT22;32667;48.248;-1.700;2023-05-14T00:28:19;13.00;72.40
46926;DHT22;32667;48.248;-1.700;2023-05-14T00:30:47;13.00;72.30
46926;DHT22;32667;48.248;-1.700;2023-05-14T00:33:15;13.00;72.30
46926;DHT22;32667;48.248;-1.700;2023-05-14T00:35:40;13.00;72.20
46926;DHT22;32667;48.248;-1.700;2023-05-14T00:38:16;13.10;72.20
46926;DHT22;32667;48.248;-1.700;2023-05-14T00:40:44;13.10;72.20
46926;DHT22;32667;48.248;-1.700;2023-05-14T00:43:18;13.10;72.10
46926;DHT22;32667;48.248;-1.700;2023-05-14T00:45:51;13.10;72.10
46926;DHT22;32667;48.248;-1.700;2023-05-14T00:48:17;13.00;72.10
46926;DHT22;32667;48.248;-1.700;2023-05-14T00:50:46;13.00;72.10
46926;DHT22;32667;48.248;-1.700;2023-05-14T00:53:13;13.00;72.10
46926;DHT22;32667;48.248;-1.700;2023-05-14T00:55:40;13.00;72.10
46926;DHT22;32667;48.248;-1.700;2023-05-14T00:58:13;13.00;72.10
46926;DHT22;32667;48.248;-1.700;2023-05-14T01:03:30;13.00;72.20
46926;DHT22;32667;48.248;-1.700;2023-05-14T01:11:05;13.00;72.20
46926;DHT22;32667;48.248;-1.700;2023-05-14T01:14:03;13.00;72.10
46926;DHT22;32667;48.248;-1.700;2023-05-14T01:16:41;13.00;72.10
46926;DHT22;32667;48.248;-1.700;2023-05-14T01:19:22;13.00;72.00
46926;DHT22;32667;48.248;-1.700;2023-05-14T01:21:51;13.00;72.00
46926;DHT22;32667;48.248;-1.700;2023-05-14T01:24:27;13.00;72.00
46926;DHT22;32667;48.248;-1.700;2023-05-14T01:26:54;13.00;72.00
46926;DHT22;32667;48.248;-1.700;2023-05-14T01:29:33;13.10;72.00
46926;DHT22;32667;48.248;-1.700;2023-05-14T01:32:00;13.10;72.00
46926;DHT22;32667;48.248;-1.700;2023-05-14T01:34:35;13.10;71.90
46926;DHT22;32667;48.248;-1.700;2023-05-14T01:37:09;13.10;71.90
46926;DHT22;32667;48.248;-1.700;2023-05-14T01:39:39;13.10;71.90
46926;DHT22;32667;48.248;-1.700;2023-05-14T01:42:08;13.10;71.80
46926;DHT22;32667;48.248;-1.700;2023-05-14T01:44:39;13.10;71.80
46926;DHT22;32667;48.248;-1.700;2023-05-14T01:47:05;13.20;71.80
46926;DHT22;32667;48.248;-1.700;2023-05-14T01:49:35;13.20;71.80
46926;DHT22;32667;48.248;-1.700;2023-05-14T01:52:04;13.20;71.80
46926;DHT22;32667;48.248;-1.700;2023-05-14T01:54:30;13.20;71.70
46926;DHT22;32667;48.248;-1.700;2023-05-14T01:57:00;13.30;71.70
46926;DHT22;32667;48.248;-1.700;2023-05-14T01:59:28;13.30;71.70
46926;DHT22;32667;48.248;-1.700;2023-05-14T02:01:54;13.30;71.60
46926;DHT22;32667;48.248;-1.700;2023-05-14T02:04:22;13.30;71.60
46926;DHT22;32667;48.248;-1.700;2023-05-14T02:06:53;13.30;71.60
46926;DHT22;32667;48.248;-1.700;2023-05-14T02:09:19;13.30;71.60
46926;DHT22;32667;48.248;-1.700;2023-05-14T02:11:52;13.30;71.60
46926;DHT22;32667;48.248;-1.700;2023-05-14T02:14:19;13.30;71.60
46926;DHT22;32667;48.248;-1.700;2023-05-14T02:16:45;13.40;71.60
46926;DHT22;32667;48.248;-1.700;2023-05-14T02:19:11;13.40;71.60
46926;DHT22;32667;48.248;-1.700;2023-05-14T02:21:37;13.40;71.60
46926;DHT22;32667;48.248;-1.700;2023-05-14T02:24:05;13.40;71.60
46926;DHT22;32667;48.248;-1.700;2023-05-14T02:26:31;13.30;71.60
46926;DHT22;32667;48.248;-1.700;2023-05-14T02:28:59;13.30;71.60
46926;DHT22;32667;48.248;-1.700;2023-05-14T02:31:24;13.30;71.60
46926;DHT22;32667;48.248;-1.700;2023-05-14T02:33:52;13.30;71.70
46926;DHT22;32667;48.248;-1.700;2023-05-14T02:36:31;13.30;71.70
46926;DHT22;32667;48.248;-1.700;2023-05-14T02:38:58;13.40;71.60
46926;DHT22;32667;48.248;-1.700;2023-05-14T02:41:24;13.40;71.60
46926;DHT22;32667;48.248;-1.700;2023-05-14T02:44:01;13.40;71.60
46926;DHT22;32667;48.248;-1.700;2023-05-14T02:46:29;13.40;71.60
46926;DHT22;32667;48.248;-1.700;2023-05-14T02:48:57;13.40;71.60
46926;DHT22;32667;48.248;-1.700;2023-05-14T02:51:27;13.40;71.60
46926;DHT22;32667;48.248;-1.700;2023-05-14T02:53:52;13.40;71.60
46926;DHT22;32667;48.248;-1.700;2023-05-14T02:56:18;13.40;71.60
46926;DHT22;32667;48.248;-1.700;2023-05-14T02:58:44;13.40;71.60
46926;DHT22;32667;48.248;-1.700;2023-05-14T03:01:10;13.40;71.60
46926;DHT22;32667;48.248;-1.700;2023-05-14T03:03:36;13.40;71.50
46926;DHT22;32667;48.248;-1.700;2023-05-14T03:06:07;13.50;71.60
46926;DHT22;32667;48.248;-1.700;2023-05-14T03:08:32;13.50;71.60
46926;DHT22;32667;48.248;-1.700;2023-05-14T03:11:02;13.40;71.50
46926;DHT22;32667;48.248;-1.700;2023-05-14T03:13:34;13.40;71.60
46926;DHT22;32667;48.248;-1.700;2023-05-14T03:16:09;13.50;71.60
46926;DHT22;32667;48.248;-1.700;2023-05-14T03:18:35;13.50;72.10
46926;DHT22;32667;48.248;-1.700;2023-05-14T03:21:03;13.50;71.50
46926;DHT22;32667;48.248;-1.700;2023-05-14T03:23:31;13.50;71.60
46926;DHT22;32667;48.248;-1.700;2023-05-14T03:26:00;13.50;71.60
46926;DHT22;32667;48.248;-1.700;2023-05-14T03:28:30;13.50;71.60
46926;DHT22;32667;48.248;-1.700;2023-05-14T03:31:03;13.50;71.60
46926;DHT22;32667;48.248;-1.700;2023-05-14T03:33:29;13.50;71.60
46926;DHT22;32667;48.248;-1.700;2023-05-14T03:35:58;13.50;71.60
46926;DHT22;32667;48.248;-1.700;2023-05-14T03:38:31;13.50;71.60
46926;DHT22;32667;48.248;-1.700;2023-05-14T03:40:56;13.50;71.70
46926;DHT22;32667;48.248;-1.700;2023-05-14T03:43:29;13.40;71.60
46926;DHT22;32667;48.248;-1.700;2023-05-14T03:46:10;13.40;71.60
46926;DHT22;32667;48.248;-1.700;2023-05-14T03:48:38;13.40;71.70
46926;DHT22;32667;48.248;-1.700;2023-05-14T03:51:06;13.40;71.70
46926;DHT22;32667;48.248;-1.700;2023-05-14T03:53:34;13.40;71.70
46926;DHT22;32667;48.248;-1.700;2023-05-14T03:56:01;13.50;71.70
46926;DHT22;32667;48.248;-1.700;2023-05-14T03:58:34;13.40;71.70
46926;DHT22;32667;48.248;-1.700;2023-05-14T04:01:00;13.40;71.60
46926;DHT22;32667;48.248;-1.700;2023-05-14T04:03:28;13.50;71.70
46926;DHT22;32667;48.248;-1.700;2023-05-14T04:06:01;13.50;71.70
46926;DHT22;32667;48.248;-1.700;2023-05-14T04:08:31;13.50;71.70
46926;DHT22;32667;48.248;-1.700;2023-05-14T04:10:57;13.50;71.60
46926;DHT22;32667;48.248;-1.700;2023-05-14T04:13:25;13.50;71.60
46926;DHT22;32667;48.248;-1.700;2023-05-14T04:15:51;13.50;71.60
46926;DHT22;32667;48.248;-1.700;2023-05-14T04:18:20;13.50;71.60
46926;DHT22;32667;48.248;-1.700;2023-05-14T04:20:48;13.50;71.50
46926;DHT22;32667;48.248;-1.700;2023-05-14T04:23:14;13.50;71.60
46926;DHT22;32667;48.248;-1.700;2023-05-14T04:25:42;13.60;71.60
46926;DHT22;32667;48.248;-1.700;2023-05-14T04:28:08;13.60;71.60
46926;DHT22;32667;48.248;-1.700;2023-05-14T04:30:38;13.50;71.50
46926;DHT22;32667;48.248;-1.700;2023-05-14T04:33:04;13.60;71.60
46926;DHT22;32667;48.248;-1.700;2023-05-14T04:35:30;13.60;71.60
46926;DHT22;32667;48.248;-1.700;2023-05-14T04:37:56;13.60;71.60
46926;DHT22;32667;48.248;-1.700;2023-05-14T04:40:33;13.60;71.60
46926;DHT22;32667;48.248;-1.700;2023-05-14T04:42:58;13.60;71.60
46926;DHT22;32667;48.248;-1.700;2023-05-14T04:45:24;13.60;71.60
46926;DHT22;32667;48.248;-1.700;2023-05-14T04:47:54;13.60;71.60
46926;DHT22;32667;48.248;-1.700;2023-05-14T04:50:23;13.60;71.60
46926;DHT22;32667;48.248;-1.700;2023-05-14T04:52:49;13.60;71.60
46926;DHT22;32667;48.248;-1.700;2023-05-14T04:55:15;13.60;71.50
46926;DHT22;32667;48.248;-1.700;2023-05-14T04:57:40;13.60;71.60
46926;DHT22;32667;48.248;-1.700;2023-05-14T05:00:09;13.60;71.50
46926;DHT22;32667;48.248;-1.700;2023-05-14T05:02:38;13.60;71.50
46926;DHT22;32667;48.248;-1.700;2023-05-14T05:05:06;13.60;71.60
46926;DHT22;32667;48.248;-1.700;2023-05-14T05:07:34;13.60;71.50
46926;DHT22;32667;48.248;-1.700;2023-05-14T05:10:05;13.60;71.50
46926;DHT22;32667;48.248;-1.700;2023-05-14T05:12:33;13.60;71.50
46926;DHT22;32667;48.248;-1.700;2023-05-14T05:15:02;13.60;71.60
46926;DHT22;32667;48.248;-1.700;2023-05-14T05:17:32;13.60;71.60
46926;DHT22;32667;48.248;-1.700;2023-05-14T05:20:00;13.60;71.60
46926;DHT22;32667;48.248;-1.700;2023-05-14T05:22:31;13.60;71.60
46926;DHT22;32667;48.248;-1.700;2023-05-14T05:25:01;13.60;71.70
46926;DHT22;32667;48.248;-1.700;2023-05-14T05:27:31;13.60;71.70
46926;DHT22;32667;48.248;-1.700;2023-05-14T05:30:00;13.60;71.70
46926;DHT22;32667;48.248;-1.700;2023-05-14T05:32:29;13.60;71.70
46926;DHT22;32667;48.248;-1.700;2023-05-14T05:35:02;13.50;71.60
46926;DHT22;32667;48.248;-1.700;2023-05-14T05:37:33;13.60;71.60
46926;DHT22;32667;48.248;-1.700;2023-05-14T05:40:02;13.60;71.60
46926;DHT22;32667;48.248;-1.700;2023-05-14T05:42:33;13.60;71.60
46926;DHT22;32667;48.248;-1.700;2023-05-14T05:45:01;13.60;71.60
46926;DHT22;32667;48.248;-1.700;2023-05-14T05:47:27;13.60;71.50
46926;DHT22;32667;48.248;-1.700;2023-05-14T05:49:58;13.60;71.50
46926;DHT22;32667;48.248;-1.700;2023-05-14T05:52:26;13.70;71.50
46926;DHT22;32667;48.248;-1.700;2023-05-14T05:54:54;13.60;71.40
46926;DHT22;32667;48.248;-1.700;2023-05-14T05:57:20;13.70;71.40
46926;DHT22;32667;48.248;-1.700;2023-05-14T05:59:48;13.70;71.30
46926;DHT22;32667;48.248;-1.700;2023-05-14T06:02:15;13.80;71.40
46926;DHT22;32667;48.248;-1.700;2023-05-14T06:04:44;13.80;71.30
46926;DHT22;32667;48.248;-1.700;2023-05-14T06:07:17;13.80;71.20
46926;DHT22;32667;48.248;-1.700;2023-05-14T06:09:50;13.90;71.20
46926;DHT22;32667;48.248;-1.700;2023-05-14T06:12:16;13.90;71.10
46926;DHT22;32667;48.248;-1.700;2023-05-14T06:14:42;14.00;71.00
46926;DHT22;32667;48.248;-1.700;2023-05-14T06:17:07;14.00;71.00
46926;DHT22;32667;48.248;-1.700;2023-05-14T06:19:35;14.10;71.00
46926;DHT22;32667;48.248;-1.700;2023-05-14T06:22:08;14.10;70.90
46926;DHT22;32667;48.248;-1.700;2023-05-14T06:24:44;14.20;70.90
46926;DHT22;32667;48.248;-1.700;2023-05-14T06:27:12;14.20;70.80
46926;DHT22;32667;48.248;-1.700;2023-05-14T06:29:40;14.30;70.80
46926;DHT22;32667;48.248;-1.700;2023-05-14T06:32:09;14.30;70.60
46926;DHT22;32667;48.248;-1.700;2023-05-14T06:34:35;14.30;70.60
46926;DHT22;32667;48.248;-1.700;2023-05-14T06:37:03;14.40;70.70
46926;DHT22;32667;48.248;-1.700;2023-05-14T06:39:37;14.40;71.30
46926;DHT22;32667;48.248;-1.700;2023-05-14T06:42:03;14.40;70.60
46926;DHT22;32667;48.248;-1.700;2023-05-14T06:44:29;14.50;70.70
46926;DHT22;32667;48.248;-1.700;2023-05-14T06:46:57;14.50;70.60
46926;DHT22;32667;48.248;-1.700;2023-05-14T06:49:23;14.50;70.60
46926;DHT22;32667;48.248;-1.700;2023-05-14T06:51:51;14.50;70.60
46926;DHT22;32667;48.248;-1.700;2023-05-14T06:54:27;14.50;70.60
46926;DHT22;32667;48.248;-1.700;2023-05-14T06:56:57;14.60;70.60
46926;DHT22;32667;48.248;-1.700;2023-05-14T06:59:31;14.60;70.60
46926;DHT22;32667;48.248;-1.700;2023-05-14T07:01:56;14.70;70.60
46926;DHT22;32667;48.248;-1.700;2023-05-14T07:04:32;14.70;70.60
46926;DHT22;32667;48.248;-1.700;2023-05-14T07:07:05;14.70;70.60
46926;DHT22;32667;48.248;-1.700;2023-05-14T07:09:47;14.70;70.60
46926;DHT22;32667;48.248;-1.700;2023-05-14T07:12:16;14.70;70.60
46926;DHT22;32667;48.248;-1.700;2023-05-14T07:14:42;14.80;70.80
46926;DHT22;32667;48.248;-1.700;2023-05-14T07:17:11;14.80;70.50
46926;DHT22;32667;48.248;-1.700;2023-05-14T07:19:39;14.90;70.40
46926;DHT22;32667;48.248;-1.700;2023-05-14T07:22:15;15.00;70.40
46926;DHT22;32667;48.248;-1.700;2023-05-14T07:24:43;15.00;70.20
46926;DHT22;32667;48.248;-1.700;2023-05-14T07:27:11;15.00;70.20
46926;DHT22;32667;48.248;-1.700;2023-05-14T07:29:42;15.10;70.20
46926;DHT22;32667;48.248;-1.700;2023-05-14T07:32:11;15.20;70.10
46926;DHT22;32667;48.248;-1.700;2023-05-14T07:34:39;15.30;70.00
46926;DHT22;32667;48.248;-1.700;2023-05-14T07:37:07;15.30;70.00
46926;DHT22;32667;48.248;-1.700;2023-05-14T07:39:36;15.30;69.90
46926;DHT22;32667;48.248;-1.700;2023-05-14T07:42:01;15.40;69.90
46926;DHT22;32667;48.248;-1.700;2023-05-14T07:44:30;15.40;69.90
46926;DHT22;32667;48.248;-1.700;2023-05-14T07:47:01;15.50;69.90
46926;DHT22;32667;48.248;-1.700;2023-05-14T07:49:32;15.50;70.50
46926;DHT22;32667;48.248;-1.700;2023-05-14T07:51:58;15.50;69.90
46926;DHT22;32667;48.248;-1.700;2023-05-14T07:54:26;15.40;70.00
46926;DHT22;32667;48.248;-1.700;2023-05-14T07:56:54;15.50;70.10
46926;DHT22;32667;48.248;-1.700;2023-05-14T07:59:20;15.50;70.00
46926;DHT22;32667;48.248;-1.700;2023-05-14T08:01:57;15.60;70.10
46926;DHT22;32667;48.248;-1.700;2023-05-14T08:04:25;15.60;70.00
46926;DHT22;32667;48.248;-1.700;2023-05-14T08:06:55;15.70;69.90
46926;DHT22;32667;48.248;-1.700;2023-05-14T08:09:22;15.70;69.90
46926;DHT22;32667;48.248;-1.700;2023-05-14T08:11:48;15.80;69.80
46926;DHT22;32667;48.248;-1.700;2023-05-14T08:14:19;15.90;69.70
46926;DHT22;32667;48.248;-1.700;2023-05-14T08:16:48;15.90;69.70
46926;DHT22;32667;48.248;-1.700;2023-05-14T08:19:32;15.90;69.60
46926;DHT22;32667;48.248;-1.700;2023-05-14T08:22:03;16.00;69.60
46926;DHT22;32667;48.248;-1.700;2023-05-14T08:24:34;16.00;70.10
46926;DHT22;32667;48.248;-1.700;2023-05-14T08:27:00;16.10;69.50
46926;DHT22;32667;48.248;-1.700;2023-05-14T08:29:31;16.10;69.40
46926;DHT22;32667;48.248;-1.700;2023-05-14T08:32:07;16.20;69.40
46926;DHT22;32667;48.248;-1.700;2023-05-14T08:34:35;16.20;69.40
46926;DHT22;32667;48.248;-1.700;2023-05-14T08:37:01;16.20;69.40
46926;DHT22;32667;48.248;-1.700;2023-05-14T08:39:36;16.30;69.50
46926;DHT22;32667;48.248;-1.700;2023-05-14T08:42:08;16.40;69.50
46926;DHT22;32667;48.248;-1.700;2023-05-14T08:44:59;16.50;69.30
46926;DHT22;32667;48.248;-1.700;2023-05-14T08:47:28;16.50;69.20
46926;DHT22;32667;48.248;-1.700;2023-05-14T08:50:06;16.60;69.20
46926;DHT22;32667;48.248;-1.700;2023-05-14T08:52:33;16.70;69.10
46926;DHT22;32667;48.248;-1.700;2023-05-14T08:55:03;16.70;69.00
46926;DHT22;32667;48.248;-1.700;2023-05-14T08:57:34;16.70;69.00
46926;DHT22;32667;48.248;-1.700;2023-05-14T09:00:03;16.80;69.00
46926;DHT22;32667;48.248;-1.700;2023-05-14T09:02:34;16.80;69.00
46926;DHT22;32667;48.248;-1.700;2023-05-14T09:05:05;16.80;69.00
46926;DHT22;32667;48.248;-1.700;2023-05-14T09:07:34;16.90;69.00
46926;DHT22;32667;48.248;-1.700;2023-05-14T09:10:00;16.90;69.00
46926;DHT22;32667;48.248;-1.700;2023-05-14T09:12:31;17.00;69.00
46926;DHT22;32667;48.248;-1.700;2023-05-14T09:14:57;17.00;69.00
46926;DHT22;32667;48.248;-1.700;2023-05-14T09:17:27;17.10;69.00
46926;DHT22;32667;48.248;-1.700;2023-05-14T09:19:53;17.10;68.90
46926;DHT22;32667;48.248;-1.700;2023-05-14T09:22:21;17.20;68.90
46926;DHT22;32667;48.248;-1.700;2023-05-14T09:25:02;17.20;68.90
46926;DHT22;32667;48.248;-1.700;2023-05-14T09:27:35;17.20;68.90
46926;DHT22;32667;48.248;-1.700;2023-05-14T09:30:11;17.30;68.80
46926;DHT22;32667;48.248;-1.700;2023-05-14T09:32:43;17.30;68.80
46926;DHT22;32667;48.248;-1.700;2023-05-14T09:35:16;17.40;68.80
46926;DHT22;32667;48.248;-1.700;2023-05-14T09:37:53;17.50;68.80
46926;DHT22;32667;48.248;-1.700;2023-05-14T09:40:21;17.50;68.80
46926;DHT22;32667;48.248;-1.700;2023-05-14T09:42:48;17.60;68.70
46926;DHT22;32667;48.248;-1.700;2023-05-14T09:45:16;17.70;68.60
46926;DHT22;32667;48.248;-1.700;2023-05-14T09:47:45;17.80;68.50
46926;DHT22;32667;48.248;-1.700;2023-05-14T09:50:11;17.90;68.50
46926;DHT22;32667;48.248;-1.700;2023-05-14T09:52:46;17.90;68.40
46926;DHT22;32667;48.248;-1.700;2023-05-14T09:55:12;18.00;68.40
46926;DHT22;32667;48.248;-1.700;2023-05-14T09:57:41;18.00;68.30
46926;DHT22;32667;48.248;-1.700;2023-05-14T10:00:12;18.10;68.30
46926;DHT22;32667;48.248;-1.700;2023-05-14T10:02:41;18.20;68.20
46926;DHT22;32667;48.248;-1.700;2023-05-14T10:05:11;18.40;68.00
46926;DHT22;32667;48.248;-1.700;2023-05-14T10:07:47;18.50;67.90
46926;DHT22;32667;48.248;-1.700;2023-05-14T10:10:23;18.60;67.80
46926;DHT22;32667;48.248;-1.700;2023-05-14T10:13:03;18.70;67.70
46926;DHT22;32667;48.248;-1.700;2023-05-14T10:15:42;18.70;67.60
46926;DHT22;32667;48.248;-1.700;2023-05-14T10:18:16;18.90;67.50
46926;DHT22;32667;48.248;-1.700;2023-05-14T10:20:47;19.00;67.30
46926;DHT22;32667;48.248;-1.700;2023-05-14T10:23:18;19.10;67.30
46926;DHT22;32667;48.248;-1.700;2023-05-14T10:25:51;19.20;67.30
46926;DHT22;32667;48.248;-1.700;2023-05-14T10:28:19;19.20;67.30
46926;DHT22;32667;48.248;-1.700;2023-05-14T10:30:48;19.20;67.30
46926;DHT22;32667;48.248;-1.700;2023-05-14T10:33:15;19.20;67.30
46926;DHT22;32667;48.248;-1.700;2023-05-14T10:36:02;19.20;67.50
46926;DHT22;32667;48.248;-1.700;2023-05-14T10:38:31;19.20;67.60
46926;DHT22;32667;48.248;-1.700;2023-05-14T10:41:04;19.20;67.70
46926;DHT22;32667;48.248;-1.700;2023-05-14T10:43:38;19.20;67.90
46926;DHT22;32667;48.248;-1.700;2023-05-14T10:46:24;19.10;67.90
46926;DHT22;32667;48.248;-1.700;2023-05-14T10:48:55;19.20;67.90
46926;DHT22;32667;48.248;-1.700;2023-05-14T10:51:21;19.20;67.80
46926;DHT22;32667;48.248;-1.700;2023-05-14T10:53:59;19.20;68.00
46926;DHT22;32667;48.248;-1.700;2023-05-14T10:56:35;19.00;68.10
46926;DHT22;32667;48.248;-1.700;2023-05-14T10:59:03;19.00;68.40
46926;DHT22;32667;48.248;-1.700;2023-05-14T11:01:31;19.00;68.50
46926;DHT22;32667;48.248;-1.700;2023-05-14T11:04:02;19.00;68.50
46926;DHT22;32667;48.248;-1.700;2023-05-14T11:06:30;19.00;68.40
46926;DHT22;32667;48.248;-1.700;2023-05-14T11:08:57;19.10;68.30
46926;DHT22;32667;48.248;-1.700;2023-05-14T11:11:28;19.10;68.20
46926;DHT22;32667;48.248;-1.700;2023-05-14T11:13:57;19.20;68.10
46926;DHT22;32667;48.248;-1.700;2023-05-14T11:16:32;19.20;68.10
46926;DHT22;32667;48.248;-1.700;2023-05-14T11:19:02;19.30;68.10
46926;DHT22;32667;48.248;-1.700;2023-05-14T11:21:33;19.30;68.00
46926;DHT22;32667;48.248;-1.700;2023-05-14T11:24:00;19.40;67.90
46926;DHT22;32667;48.248;-1.700;2023-05-14T11:26:33;19.50;67.80
46926;DHT22;32667;48.248;-1.700;2023-05-14T11:28:59;19.60;67.70
46926;DHT22;32667;48.248;-1.700;2023-05-14T11:31:25;19.70;67.60
46926;DHT22;32667;48.248;-1.700;2023-05-14T11:33:52;19.70;67.60
46926;DHT22;32667;48.248;-1.700;2023-05-14T11:36:20;19.70;67.50
46926;DHT22;32667;48.248;-1.700;2023-05-14T11:38:48;19.80;67.50
46926;DHT22;32667;48.248;-1.700;2023-05-14T11:41:18;19.90;67.40
46926;DHT22;32667;48.248;-1.700;2023-05-14T11:43:49;20.10;67.30
46926;DHT22;32667;48.248;-1.700;2023-05-14T11:46:17;20.10;67.20
46926;DHT22;32667;48.248;-1.700;2023-05-14T11:48:43;20.20;67.00
46926;DHT22;32667;48.248;-1.700;2023-05-14T11:51:09;20.30;67.00
46926;DHT22;32667;48.248;-1.700;2023-05-14T11:53:37;20.30;67.00
46926;DHT22;32667;48.248;-1.700;2023-05-14T11:56:03;20.30;67.00
46926;DHT22;32667;48.248;-1.700;2023-05-14T11:58:55;20.40;67.10
46926;DHT22;32667;48.248;-1.700;2023-05-14T12:01:21;20.40;67.00
46926;DHT22;32667;48.248;-1.700;2023-05-14T12:03:47;20.50;67.00
46926;DHT22;32667;48.248;-1.700;2023-05-14T12:06:12;20.50;66.90
46926;DHT22;32667;48.248;-1.700;2023-05-14T12:08:38;20.60;67.00
46926;DHT22;32667;48.248;-1.700;2023-05-14T12:11:07;20.60;66.90
46926;DHT22;32667;48.248;-1.700;2023-05-14T12:13:36;20.60;66.80
46926;DHT22;32667;48.248;-1.700;2023-05-14T12:16:02;20.70;66.90
46926;DHT22;32667;48.248;-1.700;2023-05-14T12:18:46;20.80;66.80
46926;DHT22;32667;48.248;-1.700;2023-05-14T12:21:23;20.90;66.70
46926;DHT22;32667;48.248;-1.700;2023-05-14T12:23:59;21.00;66.60
46926;DHT22;32667;48.248;-1.700;2023-05-14T12:26:31;21.10;66.60
46926;DHT22;32667;48.248;-1.700;2023-05-14T12:29:01;21.10;66.50
46926;DHT22;32667;48.248;-1.700;2023-05-14T12:31:43;21.10;66.60
46926;DHT22;32667;48.248;-1.700;2023-05-14T12:34:26;21.20;66.50
46926;DHT22;32667;48.248;-1.700;2023-05-14T12:36:59;21.40;66.40
46926;DHT22;32667;48.248;-1.700;2023-05-14T12:39:32;21.60;66.20
46926;DHT22;32667;48.248;-1.700;2023-05-14T12:42:01;21.70;66.10
46926;DHT22;32667;48.248;-1.700;2023-05-14T12:44:27;21.80;66.00
46926;DHT22;32667;48.248;-1.700;2023-05-14T12:46:55;21.90;65.90
46926;DHT22;32667;48.248;-1.700;2023-05-14T12:49:22;21.90;65.90
46926;DHT22;32667;48.248;-1.700;2023-05-14T12:51:47;22.00;65.90
46926;DHT22;32667;48.248;-1.700;2023-05-14T12:54:16;22.10;65.90
46926;DHT22;32667;48.248;-1.700;2023-05-14T12:56:44;22.20;65.80
46926;DHT22;32667;48.248;-1.700;2023-05-14T12:59:10;22.30;65.80
46926;DHT22;32667;48.248;-1.700;2023-05-14T13:01:39;22.40;65.70
46926;DHT22;32667;48.248;-1.700;2023-05-14T13:04:12;22.50;65.70
46926;DHT22;32667;48.248;-1.700;2023-05-14T13:06:40;22.70;65.50
46926;DHT22;32667;48.248;-1.700;2023-05-14T13:09:06;22.80;65.30
46926;DHT22;32667;48.248;-1.700;2023-05-14T13:11:33;22.90;65.20
46926;DHT22;32667;48.248;-1.700;2023-05-14T13:14:01;23.00;65.10
46926;DHT22;32667;48.248;-1.700;2023-05-14T13:16:35;23.20;65.00
46926;DHT22;32667;48.248;-1.700;2023-05-14T13:19:01;23.20;65.00
46926;DHT22;32667;48.248;-1.700;2023-05-14T13:21:29;23.30;65.00
46926;DHT22;32667;48.248;-1.700;2023-05-14T13:23:55;23.40;65.00
46926;DHT22;32667;48.248;-1.700;2023-05-14T13:26:21;23.40;65.00
46926;DHT22;32667;48.248;-1.700;2023-05-14T13:28:47;23.50;65.10
46926;DHT22;32667;48.248;-1.700;2023-05-14T13:31:13;23.70;65.00
46926;DHT22;32667;48.248;-1.700;2023-05-14T13:33:42;23.80;64.90
46926;DHT22;32667;48.248;-1.700;2023-05-14T13:36:13;23.90;64.70
46926;DHT22;32667;48.248;-1.700;2023-05-14T13:38:41;24.10;64.70
46926;DHT22;32667;48.248;-1.700;2023-05-14T13:41:17;24.20;64.60
46926;DHT22;32667;48.248;-1.700;2023-05-14T13:43:45;24.20;64.60
46926;DHT22;32667;48.248;-1.700;2023-05-14T13:46:13;24.30;64.60
46926;DHT22;32667;48.248;-1.700;2023-05-14T13:48:59;24.40;64.60
46926;DHT22;32667;48.248;-1.700;2023-05-14T13:51:25;24.50;64.50
46926;DHT22;32667;48.248;-1.700;2023-05-14T13:53:53;24.50;64.50
46926;DHT22;32667;48.248;-1.700;2023-05-14T13:56:19;24.50;64.60
46926;DHT22;32667;48.248;-1.700;2023-05-14T13:58:47;24.50;64.80
46926;DHT22;32667;48.248;-1.700;2023-05-14T14:01:13;24.50;64.80
46926;DHT22;32667;48.248;-1.700;2023-05-14T14:03:41;24.50;64.80
46926;DHT22;32667;48.248;-1.700;2023-05-14T14:06:11;24.60;64.90
46926;DHT22;32667;48.248;-1.700;2023-05-14T14:08:42;24.60;64.90
46926;DHT22;32667;48.248;-1.700;2023-05-14T14:11:08;24.70;64.90
46926;DHT22;32667;48.248;-1.700;2023-05-14T14:13:33;24.70;64.80
46926;DHT22;32667;48.248;-1.700;2023-05-14T14:16:01;24.80;65.40
46926;DHT22;32667;48.248;-1.700;2023-05-14T14:18:27;24.80;64.80
46926;DHT22;32667;48.248;-1.700;2023-05-14T14:20:56;24.90;64.80
46926;DHT22;32667;48.248;-1.700;2023-05-14T14:23:26;24.90;64.70
46926;DHT22;32667;48.248;-1.700;2023-05-14T14:25:54;24.90;64.80
46926;DHT22;32667;48.248;-1.700;2023-05-14T14:28:22;24.90;65.00
46926;DHT22;32667;48.248;-1.700;2023-05-14T14:30:53;24.90;65.00
46926;DHT22;32667;48.248;-1.700;2023-05-14T14:33:19;24.80;65.10
46926;DHT22;32667;48.248;-1.700;2023-05-14T14:35:45;24.70;65.20
46926;DHT22;32667;48.248;-1.700;2023-05-14T14:38:11;24.60;65.40
46926;DHT22;32667;48.248;-1.700;2023-05-14T14:40:37;24.50;65.60
46926;DHT22;32667;48.248;-1.700;2023-05-14T14:43:02;24.50;65.70
46926;DHT22;32667;48.248;-1.700;2023-05-14T14:45:30;24.50;65.70
46926;DHT22;32667;48.248;-1.700;2023-05-14T14:50:50;24.60;65.70
46926;DHT22;32667;48.248;-1.700;2023-05-14T14:53:17;24.50;65.70
46926;DHT22;32667;48.248;-1.700;2023-05-14T14:55:53;24.40;65.80
46926;DHT22;32667;48.248;-1.700;2023-05-14T14:58:28;24.20;66.10
46926;DHT22;32667;48.248;-1.700;2023-05-14T15:00:58;24.00;66.50
46926;DHT22;32667;48.248;-1.700;2023-05-14T15:03:24;23.90;67.30
46926;DHT22;32667;48.248;-1.700;2023-05-14T15:05:50;23.90;66.90
46926;DHT22;32667;48.248;-1.700;2023-05-14T15:08:25;23.80;66.90
46926;DHT22;32667;48.248;-1.700;2023-05-14T15:11:03;23.80;66.90
46926;DHT22;32667;48.248;-1.700;2023-05-14T15:13:31;23.90;66.80
46926;DHT22;32667;48.248;-1.700;2023-05-14T15:15:59;23.80;66.60
46926;DHT22;32667;48.248;-1.700;2023-05-14T15:18:28;23.70;66.70
46926;DHT22;32667;48.248;-1.700;2023-05-14T15:20:56;23.70;66.80
46926;DHT22;32667;48.248;-1.700;2023-05-14T15:23:24;23.70;66.80
46926;DHT22;32667;48.248;-1.700;2023-05-14T15:25:50;23.70;66.70
46926;DHT22;32667;48.248;-1.700;2023-05-14T15:28:15;23.80;66.60
46926;DHT22;32667;48.248;-1.700;2023-05-14T15:30:41;23.80;66.60
46926;DHT22;32667;48.248;-1.700;2023-05-14T15:33:07;23.90;66.60
46926;DHT22;32667;48.248;-1.700;2023-05-14T15:35:33;23.90;66.50
46926;DHT22;32667;48.248;-1.700;2023-05-14T15:38:02;23.90;66.40
46926;DHT22;32667;48.248;-1.700;2023-05-14T15:40:30;23.90;66.50